createdAt,value
2018-11-11T00:01:34.296Z,22.77
2018-11-11T00:04:01.951Z,22.10
2018-11-11T00:06:29.567Z,23.00
2018-11-11T00:08:57.195Z,24.72
2018-11-11T00:11:24.890Z,27.75
2018-11-11T00:13:52.527Z,24.70
2018-11-11T00:16:20.257Z,26.10
2018-11-11T00:18:47.833Z,26.60
2018-11-11T00:21:16.369Z,25.25
2018-11-11T00:23:44.001Z,24.18
2018-11-11T00:26:11.654Z,26.77
2018-11-11T00:28:39.363Z,25.82
2018-11-11T00:31:06.951Z,26.15
2018-11-11T00:33:34.529Z,26.90
2018-11-11T00:36:02.187Z,25.65
2018-11-11T00:41:08.122Z,21.70
2018-11-11T00:43:35.696Z,27.93
2018-11-11T00:46:03.538Z,25.82
2018-11-11T00:48:31.144Z,22.42
2018-11-11T00:50:58.948Z,23.55
2018-11-11T00:53:26.579Z,23.67
2018-11-11T00:55:54.539Z,25.25
2018-11-11T00:58:22.115Z,25.02
2018-11-11T01:00:49.709Z,24.25
2018-11-11T01:03:17.410Z,25.40
2018-11-11T01:05:45.151Z,24.75
2018-11-11T01:08:12.867Z,23.47
2018-11-11T01:10:40.613Z,26.27
2018-11-11T01:13:08.653Z,25.37
2018-11-11T01:15:36.350Z,27.85
2018-11-11T01:18:04.109Z,26.42
2018-11-11T01:20:31.893Z,27.35
2018-11-11T01:22:59.575Z,27.82
2018-11-11T01:25:27.371Z,28.12
2018-11-11T01:27:55.163Z,28.75
2018-11-11T01:30:22.906Z,28.62
2018-11-11T01:32:50.566Z,28.15
2018-11-11T01:35:18.353Z,28.80
2018-11-11T01:37:46.058Z,27.17
2018-11-11T01:40:14.012Z,30.32
2018-11-11T01:42:41.771Z,29.60
2018-11-11T01:45:11.827Z,28.77
2018-11-11T01:47:39.478Z,28.77
2018-11-11T01:50:10.405Z,28.32
2018-11-11T01:52:38.458Z,29.05
2018-11-11T01:55:06.393Z,28.83
2018-11-11T01:57:34.532Z,27.00
2018-11-11T02:00:02.355Z,31.82
2018-11-11T02:02:30.029Z,24.85
2018-11-11T02:04:57.598Z,24.30
2018-11-11T02:07:25.370Z,25.52
2018-11-11T02:09:53.061Z,24.37
2018-11-11T02:12:20.685Z,26.05
2018-11-11T02:14:48.445Z,26.48
2018-11-11T02:17:16.005Z,26.52
2018-11-11T02:19:43.809Z,25.55
2018-11-11T02:22:11.405Z,23.70
2018-11-11T02:24:39.174Z,25.72
2018-11-11T02:27:06.978Z,27.82
2018-11-11T02:29:34.693Z,22.95
2018-11-11T02:32:02.499Z,22.77
2018-11-11T02:34:30.135Z,25.62
2018-11-11T02:36:57.970Z,26.95
2018-11-11T02:39:25.507Z,24.75
2018-11-11T02:41:53.246Z,24.37
2018-11-11T02:44:20.964Z,25.62
2018-11-11T02:46:48.618Z,25.88
2018-11-11T02:49:16.269Z,24.12
2018-11-11T02:51:43.801Z,23.15
2018-11-11T02:54:11.932Z,23.47
2018-11-11T02:56:39.520Z,24.15
2018-11-11T02:59:07.429Z,24.10
2018-11-11T03:01:35.086Z,25.55
2018-11-11T03:04:02.764Z,23.85
2018-11-11T03:06:30.419Z,24.35
2018-11-11T03:08:58.158Z,24.10
2018-11-11T03:11:25.784Z,27.40
2018-11-11T03:13:53.389Z,26.30
2018-11-11T03:16:21.245Z,25.40
2018-11-11T03:18:48.938Z,25.85
2018-11-11T03:21:16.628Z,27.00
2018-11-11T03:23:44.231Z,25.60
2018-11-11T03:26:12.291Z,24.63
2018-11-11T03:28:39.889Z,24.12
2018-11-11T03:31:07.631Z,25.60
2018-11-11T03:33:35.313Z,23.00
2018-11-11T03:36:03.043Z,23.92
2018-11-11T03:38:30.735Z,25.17
2018-11-11T03:40:58.284Z,24.70
2018-11-11T03:43:26.019Z,25.55
2018-11-11T03:45:53.617Z,26.90
2018-11-11T03:48:21.457Z,24.15
2018-11-11T03:50:49.202Z,26.17
2018-11-11T03:53:16.899Z,26.12
2018-11-11T03:55:44.588Z,27.75
2018-11-11T03:58:12.278Z,27.77
2018-11-11T04:00:39.990Z,23.90
2018-11-11T04:03:07.580Z,25.30
2018-11-11T04:05:35.310Z,24.63
2018-11-11T04:08:02.914Z,25.23
2018-11-11T04:10:30.666Z,26.10
2018-11-11T04:12:58.426Z,23.42
2018-11-11T04:15:26.052Z,24.15
2018-11-11T04:17:54.098Z,24.43
2018-11-11T04:20:21.696Z,24.65
2018-11-11T04:22:49.383Z,23.15
2018-11-11T04:25:17.675Z,24.77
2018-11-11T04:27:45.450Z,22.48
2018-11-11T04:30:14.209Z,20.97
2018-11-11T04:32:42.224Z,20.97
2018-11-11T04:35:10.098Z,20.10
2018-11-11T04:37:38.026Z,18.55
2018-11-11T04:40:07.373Z,19.10
2018-11-11T04:42:35.134Z,16.97
2018-11-11T04:45:03.050Z,17.20
2018-11-11T04:47:30.745Z,16.17
2018-11-11T04:49:58.435Z,16.35
2018-11-11T04:52:26.221Z,14.90
2018-11-11T04:54:53.788Z,16.42
2018-11-11T04:57:21.574Z,16.02
2018-11-11T04:59:49.272Z,16.82
2018-11-11T05:02:17.021Z,15.35
2018-11-11T05:04:44.867Z,16.70
2018-11-11T05:07:12.432Z,16.17
2018-11-11T05:09:40.095Z,14.58
2018-11-11T05:12:07.694Z,15.90
2018-11-11T05:14:35.297Z,16.52
2018-11-11T05:17:03.004Z,16.55
2018-11-11T05:19:30.855Z,14.38
2018-11-11T05:21:58.742Z,15.03
2018-11-11T05:24:32.934Z,16.05
2018-11-11T05:27:00.538Z,14.53
2018-11-11T05:29:28.282Z,15.48
2018-11-11T05:31:55.906Z,14.50
2018-11-11T05:34:23.552Z,15.70
2018-11-11T05:36:51.392Z,15.43
2018-11-11T05:39:19.037Z,14.43
2018-11-11T05:41:46.803Z,14.80
2018-11-11T05:44:14.526Z,16.00
2018-11-11T05:46:42.149Z,16.42
2018-11-11T05:49:09.955Z,15.15
2018-11-11T05:51:37.570Z,16.20
2018-11-11T05:54:05.385Z,19.70
2018-11-11T05:56:33.108Z,18.27
2018-11-11T05:59:01.148Z,17.25
2018-11-11T06:01:28.923Z,17.40
2018-11-11T06:03:56.485Z,15.60
2018-11-11T06:06:24.395Z,17.48
2018-11-11T06:08:52.001Z,14.60
2018-11-11T06:11:19.835Z,17.55
2018-11-11T06:13:47.499Z,17.45
2018-11-11T06:16:15.144Z,18.48
2018-11-11T06:18:42.899Z,16.48
2018-11-11T06:21:10.453Z,15.18
2018-11-11T06:23:38.298Z,14.25
2018-11-11T06:26:06.142Z,16.42
2018-11-11T06:28:33.811Z,17.07
2018-11-11T06:31:01.456Z,15.18
2018-11-11T06:33:29.309Z,14.80
2018-11-11T06:35:56.993Z,15.18
2018-11-11T06:38:24.657Z,16.25
2018-11-11T06:40:52.528Z,15.80
2018-11-11T06:43:20.118Z,15.80
2018-11-11T06:45:47.958Z,15.53
2018-11-11T06:48:15.789Z,15.43
2018-11-11T06:50:43.502Z,15.38
2018-11-11T06:53:11.195Z,14.98
2018-11-11T06:55:38.769Z,17.35
2018-11-11T06:58:07.196Z,16.25
2018-11-11T07:00:34.766Z,33.18
2018-11-11T07:03:13.610Z,23.12
2018-11-11T07:05:41.548Z,16.90
2018-11-11T07:08:09.220Z,15.40
2018-11-11T07:10:37.040Z,17.65
2018-11-11T07:13:04.926Z,17.25
2018-11-11T07:15:33.003Z,16.85
2018-11-11T07:18:00.752Z,16.30
2018-11-11T07:20:28.440Z,22.48
2018-11-11T07:22:56.204Z,25.15
2018-11-11T07:25:23.882Z,19.27
2018-11-11T07:27:51.426Z,17.17
2018-11-11T07:30:19.276Z,18.02
2018-11-11T07:32:47.048Z,15.40
2018-11-11T07:35:15.028Z,16.03
2018-11-11T07:37:42.838Z,14.30
2018-11-11T07:40:17.133Z,15.40
2018-11-11T07:42:44.954Z,14.90
2018-11-11T07:45:12.769Z,15.20
2018-11-11T07:47:40.431Z,16.00
2018-11-11T07:50:09.042Z,15.67
2018-11-11T07:52:37.228Z,14.83
2018-11-11T07:55:06.070Z,14.23
2018-11-11T07:57:33.728Z,13.57
2018-11-11T08:00:01.434Z,14.50
2018-11-11T08:02:29.040Z,15.53
2018-11-11T08:04:56.933Z,14.43
2018-11-11T08:07:24.541Z,13.27
2018-11-11T08:09:52.187Z,12.37
2018-11-11T08:12:19.799Z,13.93
2018-11-11T08:14:47.363Z,11.87
2018-11-11T08:17:14.951Z,10.90
2018-11-11T08:19:42.577Z,10.10
2018-11-11T08:22:10.235Z,11.60
2018-11-11T08:24:41.114Z,12.57
2018-11-11T08:27:08.735Z,10.93
2018-11-11T08:29:36.335Z,10.90
2018-11-11T08:32:04.575Z,11.73
2018-11-11T08:34:32.137Z,10.93
2018-11-11T08:36:59.763Z,11.93
2018-11-11T08:39:27.317Z,12.97
2018-11-11T08:41:54.893Z,12.00
2018-11-11T08:44:22.476Z,12.73
2018-11-11T08:46:50.070Z,13.30
2018-11-11T08:49:17.662Z,12.07
2018-11-11T08:51:45.260Z,11.33
2018-11-11T08:54:12.883Z,11.23
2018-11-11T08:56:40.447Z,10.80
2018-11-11T08:59:08.006Z,11.80
2018-11-11T09:01:35.587Z,12.70
2018-11-11T09:04:03.200Z,12.10
2018-11-11T09:06:30.812Z,12.43
2018-11-11T09:08:58.471Z,12.17
2018-11-11T09:11:26.104Z,14.47
2018-11-11T09:13:53.718Z,13.90
2018-11-11T09:16:21.427Z,11.87
2018-11-11T09:18:49.152Z,14.10
2018-11-11T09:21:16.827Z,13.27
2018-11-11T09:23:44.534Z,11.20
2018-11-11T09:26:12.114Z,12.57
2018-11-11T09:28:39.740Z,14.50
2018-11-11T09:31:07.334Z,13.63
2018-11-11T09:33:35.062Z,14.70
2018-11-11T09:36:02.687Z,13.67
2018-11-11T09:38:36.924Z,12.43
2018-11-11T09:41:05.030Z,14.87
2018-11-11T09:43:32.668Z,12.30
2018-11-11T09:46:00.258Z,12.63
2018-11-11T09:48:27.849Z,13.67
2018-11-11T09:50:55.535Z,12.83
2018-11-11T09:53:23.446Z,13.20
2018-11-11T09:55:51.124Z,12.37
2018-11-11T09:58:18.729Z,13.40
2018-11-11T10:00:46.896Z,13.10
2018-11-11T10:03:21.800Z,13.93
2018-11-11T10:05:58.047Z,13.40
2018-11-11T10:08:43.749Z,13.00
2018-11-11T10:11:17.829Z,14.87
2018-11-11T10:14:04.540Z,14.50
2018-11-11T10:16:37.721Z,13.27
2018-11-11T10:19:19.807Z,14.07
2018-11-11T10:21:54.761Z,14.40
2018-11-11T10:24:31.829Z,15.87
2018-11-11T10:27:06.172Z,15.37
2018-11-11T10:29:39.147Z,15.73
2018-11-11T10:32:22.553Z,13.33
2018-11-11T10:34:58.753Z,14.97
2018-11-11T10:37:32.300Z,13.17
2018-11-11T10:40:08.545Z,13.83
2018-11-11T10:42:41.937Z,14.00
2018-11-11T10:45:20.119Z,14.67
2018-11-11T10:48:04.225Z,22.43
2018-11-11T10:50:42.351Z,31.80
2018-11-11T10:53:09.962Z,17.13
2018-11-11T10:55:37.686Z,14.07
2018-11-11T10:58:05.371Z,13.90
2018-11-11T11:00:38.615Z,15.87
2018-11-11T11:03:12.135Z,13.97
2018-11-11T11:05:39.775Z,14.40
2018-11-11T11:08:07.355Z,14.83
2018-11-11T11:10:35.249Z,15.20
2018-11-11T11:13:02.925Z,16.37
2018-11-11T11:15:30.492Z,13.60
2018-11-11T11:17:58.083Z,16.90
2018-11-11T11:20:25.732Z,16.10
2018-11-11T11:22:53.315Z,15.60
2018-11-11T11:25:21.944Z,15.93
2018-11-11T11:27:49.546Z,14.50
2018-11-11T11:30:17.212Z,15.77
2018-11-11T11:32:44.862Z,15.50
2018-11-11T11:35:12.502Z,16.47
2018-11-11T11:37:40.114Z,17.73
2018-11-11T11:40:09.529Z,17.50
2018-11-11T11:42:37.554Z,16.17
2018-11-11T11:45:05.838Z,16.27
2018-11-11T11:47:33.485Z,16.30
2018-11-11T11:50:01.209Z,16.50
2018-11-11T11:52:28.898Z,17.63
2018-11-11T11:54:56.476Z,20.27
2018-11-11T11:57:24.098Z,19.37
2018-11-11T11:59:51.788Z,18.63
2018-11-11T12:02:19.479Z,17.73
2018-11-11T12:04:47.014Z,22.10
2018-11-11T12:07:14.671Z,20.77
2018-11-11T12:09:42.635Z,21.50
2018-11-11T12:12:10.328Z,29.27
2018-11-11T12:14:38.033Z,29.30
2018-11-11T12:17:06.172Z,30.90
2018-11-11T12:19:33.830Z,29.77
2018-11-11T12:22:01.524Z,29.20
2018-11-11T12:24:29.160Z,28.80
2018-11-11T12:26:56.744Z,29.87
2018-11-11T12:29:24.415Z,28.47
2018-11-11T12:31:52.016Z,27.93
2018-11-11T12:34:19.720Z,28.77
2018-11-11T12:36:47.396Z,29.07
2018-11-11T12:39:15.230Z,25.87
2018-11-11T12:41:42.764Z,27.10
2018-11-11T12:44:10.923Z,26.87
2018-11-11T12:46:38.600Z,25.07
2018-11-11T12:49:06.351Z,25.50
2018-11-11T12:51:33.929Z,25.77
2018-11-11T12:54:01.521Z,24.37
2018-11-11T12:56:29.119Z,24.53
2018-11-11T12:58:56.910Z,27.00
2018-11-11T13:01:24.573Z,26.70
2018-11-11T13:03:52.287Z,23.97
2018-11-11T13:06:19.957Z,23.97
2018-11-11T13:08:47.671Z,22.10
2018-11-11T13:11:15.883Z,26.60
2018-11-11T13:13:43.516Z,21.13
2018-11-11T13:16:11.094Z,22.53
2018-11-11T13:18:38.783Z,20.70
2018-11-11T13:21:06.483Z,20.90
2018-11-11T13:23:34.085Z,21.13
2018-11-11T13:26:01.704Z,22.13
2018-11-11T13:28:35.857Z,21.37
2018-11-11T13:31:03.664Z,22.70
2018-11-11T13:36:05.599Z,22.53
2018-11-11T13:38:33.201Z,22.80
2018-11-11T13:41:00.893Z,22.80
2018-11-11T13:43:28.454Z,22.83
2018-11-11T13:45:56.086Z,21.03
2018-11-11T13:48:23.719Z,22.67
2018-11-11T13:50:51.346Z,21.47
2018-11-11T13:53:18.968Z,20.47
2018-11-11T13:55:46.754Z,20.37
2018-11-11T13:58:14.332Z,20.17
2018-11-11T14:00:41.978Z,18.83
2018-11-11T14:03:09.612Z,18.40
2018-11-11T14:05:37.260Z,18.83
2018-11-11T14:08:04.948Z,19.20
2018-11-11T14:10:32.703Z,17.40
2018-11-11T14:13:00.372Z,16.50
2018-11-11T14:15:27.998Z,18.07
2018-11-11T14:17:56.201Z,18.83
2018-11-11T14:20:24.495Z,18.13
2018-11-11T14:22:53.036Z,18.60
2018-11-11T14:25:24.184Z,20.73
2018-11-11T14:27:51.746Z,19.80
2018-11-11T14:30:20.708Z,19.93
2018-11-11T14:32:49.135Z,22.53
2018-11-11T14:35:16.954Z,19.87
2018-11-11T14:37:47.322Z,20.57
2018-11-11T14:40:20.110Z,20.17
2018-11-11T14:42:48.193Z,20.57
2018-11-11T14:45:16.874Z,21.20
2018-11-11T14:47:45.917Z,18.40
2018-11-11T14:50:14.625Z,20.90
2018-11-11T14:52:42.918Z,21.90
2018-11-11T14:55:28.126Z,20.23
2018-11-11T14:57:56.650Z,21.00
2018-11-11T15:00:27.338Z,21.60
2018-11-11T15:03:00.149Z,20.80
2018-11-11T15:05:29.204Z,21.50
2018-11-11T15:07:58.479Z,20.93
2018-11-11T15:10:26.624Z,22.50
2018-11-11T15:12:54.491Z,20.20
2018-11-11T15:15:22.955Z,20.90
2018-11-11T15:17:54.438Z,20.77
2018-11-11T15:20:22.215Z,19.90
2018-11-11T15:22:49.864Z,15.30
2018-11-11T15:25:18.986Z,18.30
2018-11-11T15:27:47.249Z,20.00
2018-11-11T15:30:18.346Z,20.20
2018-11-11T15:32:46.479Z,18.50
2018-11-11T15:35:14.319Z,22.97
2018-11-11T15:37:42.129Z,20.53
2018-11-11T15:40:12.084Z,20.80
2018-11-11T15:42:40.817Z,22.73
2018-11-11T15:45:10.340Z,21.30
2018-11-11T15:47:39.555Z,21.87
2018-11-11T15:50:13.019Z,21.30
2018-11-11T15:52:41.914Z,23.13
2018-11-11T15:55:10.581Z,20.50
2018-11-11T15:57:38.272Z,21.47
2018-11-11T16:00:09.147Z,20.00
2018-11-11T16:02:36.883Z,21.27
2018-11-11T16:05:05.207Z,21.13
2018-11-11T16:07:33.338Z,21.20
2018-11-11T16:10:01.425Z,19.77
2018-11-11T16:12:30.438Z,21.27
2018-11-11T16:14:58.564Z,19.87
2018-11-11T16:17:26.872Z,24.57
2018-11-11T16:19:55.247Z,21.40
2018-11-11T16:22:23.284Z,20.27
2018-11-11T16:24:50.987Z,20.17
2018-11-11T16:27:19.015Z,20.40
2018-11-11T16:29:47.294Z,19.60
2018-11-11T16:32:15.318Z,22.07
2018-11-11T16:34:43.064Z,21.50
2018-11-11T16:37:10.764Z,21.87
2018-11-11T16:39:38.762Z,21.63
2018-11-11T16:42:06.401Z,21.50
2018-11-11T16:44:34.112Z,20.20
2018-11-11T16:47:02.326Z,21.30
2018-11-11T16:49:30.556Z,20.50
2018-11-11T16:51:58.940Z,19.63
2018-11-11T16:54:28.678Z,18.87
2018-11-11T16:56:56.949Z,20.17
2018-11-11T16:59:24.716Z,20.27
2018-11-11T17:01:52.468Z,22.55
2018-11-11T17:04:20.228Z,22.07
2018-11-11T17:06:48.174Z,19.03
2018-11-11T17:09:16.192Z,19.67
2018-11-11T17:11:44.028Z,19.92
2018-11-11T17:14:11.999Z,22.93
2018-11-11T17:16:39.831Z,23.57
2018-11-11T17:19:07.474Z,30.60
2018-11-11T17:21:35.302Z,25.62
2018-11-11T17:24:03.180Z,22.45
2018-11-11T17:26:31.479Z,23.18
2018-11-11T17:28:59.882Z,21.93
2018-11-11T17:31:28.506Z,19.23
2018-11-11T17:33:56.961Z,20.32
2018-11-11T17:36:25.152Z,19.98
2018-11-11T17:38:54.509Z,17.98
2018-11-11T17:41:22.934Z,19.50
2018-11-11T17:43:50.699Z,20.37
2018-11-11T17:46:18.530Z,18.50
2018-11-11T17:48:46.527Z,16.55
2018-11-11T17:51:15.079Z,19.20
2018-11-11T17:53:43.597Z,19.98
2018-11-11T17:56:11.383Z,19.02
2018-11-11T17:58:40.799Z,20.30
2018-11-11T18:01:08.522Z,21.02
2018-11-11T18:03:36.285Z,23.83
2018-11-11T18:06:05.141Z,22.93
2018-11-11T18:08:33.057Z,22.95
2018-11-11T18:11:01.183Z,21.82
2018-11-11T18:13:29.876Z,20.82
2018-11-11T18:15:58.893Z,20.23
2018-11-11T18:18:27.233Z,25.77
2018-11-11T18:20:55.410Z,23.98
2018-11-11T18:23:24.144Z,25.55
2018-11-11T18:25:51.912Z,28.32
2018-11-11T18:28:19.812Z,28.77
2018-11-11T18:30:47.764Z,26.95
2018-11-11T18:33:16.205Z,25.40
2018-11-11T18:35:44.259Z,24.77
2018-11-11T18:38:12.033Z,24.40
2018-11-11T18:40:39.760Z,23.98
2018-11-11T18:43:07.563Z,22.30
2018-11-11T18:45:35.695Z,22.95
2018-11-11T18:48:03.809Z,24.72
2018-11-11T18:50:32.774Z,24.72
2018-11-11T18:53:01.412Z,22.17
2018-11-11T18:55:30.201Z,22.77
2018-11-11T18:57:59.236Z,23.50
2018-11-11T19:00:29.599Z,35.60
2018-11-11T19:02:59.593Z,38.85
2018-11-11T19:05:30.050Z,37.55
2018-11-11T19:07:59.178Z,29.63
2018-11-11T19:10:29.057Z,42.17
2018-11-11T19:12:59.559Z,33.98
2018-11-11T19:15:28.231Z,34.08
2018-11-11T19:17:57.431Z,24.43
2018-11-11T19:20:26.345Z,23.00
2018-11-11T19:22:54.317Z,28.57
2018-11-11T19:25:23.651Z,23.50
2018-11-11T19:27:53.396Z,21.95
2018-11-11T19:30:23.550Z,21.33
2018-11-11T19:32:51.974Z,23.22
2018-11-11T19:35:20.397Z,22.95
2018-11-11T19:37:49.911Z,26.20
2018-11-11T19:40:20.571Z,22.60
2018-11-11T19:42:49.843Z,22.42
2018-11-11T19:45:19.447Z,22.10
2018-11-11T19:47:47.669Z,21.77
2018-11-11T19:50:17.959Z,25.17
2018-11-11T19:52:47.016Z,23.77
2018-11-11T19:55:15.404Z,22.25
2018-11-11T19:57:43.373Z,21.87
2018-11-11T20:00:14.443Z,22.93
2018-11-11T20:02:43.387Z,28.57
2018-11-11T20:05:12.593Z,32.78
2018-11-11T20:07:41.412Z,27.77
2018-11-11T20:10:11.000Z,25.97
2018-11-11T20:12:38.946Z,26.93
2018-11-11T20:15:09.117Z,26.10
2018-11-11T20:17:37.273Z,23.77
2018-11-11T20:20:07.956Z,20.02
2018-11-11T20:22:35.649Z,23.45
2018-11-11T20:25:04.604Z,21.68
2018-11-11T20:27:32.586Z,21.90
2018-11-11T20:30:00.435Z,23.32
2018-11-11T20:32:29.258Z,23.47
2018-11-11T20:34:57.457Z,20.72
2018-11-11T20:37:26.561Z,23.87
2018-11-11T20:39:54.781Z,21.80
2018-11-11T20:42:23.324Z,22.65
2018-11-11T20:44:51.026Z,22.65
2018-11-11T20:47:19.036Z,21.45
2018-11-11T20:49:46.877Z,21.75
2018-11-11T20:52:14.733Z,22.82
2018-11-11T20:54:42.466Z,22.93
2018-11-11T20:57:10.140Z,24.35
2018-11-11T20:59:37.807Z,20.90
2018-11-11T21:02:05.613Z,19.95
2018-11-11T21:04:34.513Z,18.50
2018-11-11T21:07:03.199Z,22.87
2018-11-11T21:09:31.284Z,19.02
2018-11-11T21:11:59.063Z,21.25
2018-11-11T21:14:26.833Z,20.57
2018-11-11T21:16:56.767Z,20.10
2018-11-11T21:19:25.143Z,17.60
2018-11-11T21:21:52.853Z,18.77
2018-11-11T21:24:20.573Z,17.95
2018-11-11T21:26:48.385Z,19.25
2018-11-11T21:29:16.904Z,17.85
2018-11-11T21:31:44.746Z,19.27
2018-11-11T21:34:12.509Z,18.23
2018-11-11T21:36:41.119Z,18.37
2018-11-11T21:39:10.489Z,17.77
2018-11-11T21:41:38.996Z,18.45
2018-11-11T21:44:06.649Z,18.70
2018-11-11T21:46:35.119Z,17.48
2018-11-11T21:49:02.935Z,17.75
2018-11-11T21:51:30.680Z,20.62
2018-11-11T21:53:58.430Z,25.17
2018-11-11T21:56:27.163Z,29.70
2018-11-11T21:58:55.587Z,24.75
2018-11-11T22:01:23.277Z,26.30
2018-11-11T22:03:50.893Z,33.98
2018-11-11T22:06:18.556Z,28.30
2018-11-11T22:08:46.605Z,28.42
2018-11-11T22:11:14.212Z,27.65
2018-11-11T22:13:42.075Z,26.25
2018-11-11T22:16:10.790Z,24.25
2018-11-11T22:18:38.320Z,26.10
2018-11-11T22:21:05.966Z,22.60
2018-11-11T22:23:34.518Z,22.27
2018-11-11T22:26:02.240Z,25.05
2018-11-11T22:28:30.006Z,25.10
2018-11-11T22:30:57.752Z,25.00
2018-11-11T22:33:25.440Z,27.32
2018-11-11T22:35:53.104Z,27.05
2018-11-11T22:38:20.716Z,29.75
2018-11-11T22:40:48.362Z,26.45
2018-11-11T22:43:15.981Z,25.50
2018-11-11T22:45:43.581Z,24.50
2018-11-11T22:48:11.822Z,25.23
2018-11-11T22:50:39.347Z,22.32
2018-11-11T22:53:06.885Z,24.72
2018-11-11T22:55:34.434Z,27.42
2018-11-11T22:58:02.093Z,22.52
2018-11-11T23:00:30.768Z,22.17
2018-11-11T23:02:58.533Z,21.62
2018-11-11T23:05:26.244Z,23.32
2018-11-11T23:07:53.813Z,26.45
2018-11-11T23:10:21.535Z,25.43
2018-11-11T23:12:49.119Z,23.60
2018-11-11T23:15:17.851Z,27.30
2018-11-11T23:17:45.445Z,26.73
2018-11-11T23:20:14.323Z,27.00
2018-11-11T23:22:42.049Z,25.85
2018-11-11T23:25:11.311Z,26.82
2018-11-11T23:27:38.848Z,27.25
2018-11-11T23:30:09.621Z,25.75
2018-11-11T23:32:37.194Z,25.37
2018-11-11T23:35:05.613Z,24.37
2018-11-11T23:37:33.206Z,23.00
2018-11-11T23:40:00.810Z,25.52
2018-11-11T23:42:28.514Z,25.45
2018-11-11T23:44:56.139Z,24.05
2018-11-11T23:47:23.796Z,25.10
2018-11-11T23:49:51.340Z,29.67
2018-11-11T23:52:18.877Z,26.90
2018-11-11T23:54:46.506Z,32.63
2018-11-11T23:57:14.061Z,27.45
2018-11-11T23:59:41.630Z,30.40
